Buoy 46563

sailwx.info

Track history (hours):
 
Tides and Currents Weather Stations Pressure Air Temp Water Temp Dewpoint Dewpoint Depression Visibility Wind Speed Wind Dir Waves Ship Positions

Drifting buoy 46563

Last reported at 2016-Jun-30 14:00 UTC. Time now 2016-Jun-30 16:01 UTC.
Position N 21°12' W 156°18'.

Water temperature 25.5 ° C

Date/timePositionNaut miles runAvg speedWind from/ knotsBaromVisibWave heightAir tempDewpointWater temp
2016-Jun-30 14:00N 21°12' W 156°18'0 0.2 25.5
2016-Jun-30 12:00N 21°12' W 156°18'0 0.1 25.5
2016-Jun-30 11:00N 21°12' W 156°18'1 0.3 25.6
2016-Jun-30 08:00N 21°12' W 156°18'0 0.5 25.6
2016-Jun-30 07:00N 21°12' W 156°17'1 0.7 25.6
2016-Jun-30 06:00N 21°12' W 156°17'0 0.0 25.6
2016-Jun-30 05:00N 21°12' W 156°17'1 0.6 25.6
2016-Jun-30 04:00N 21°12' W 156°16'0 0.3 25.6
2016-Jun-30 03:00N 21°13' W 156°16'1 0.6 25.7
2016-Jun-30 01:00N 21°14' W 156°17'0 0.0 25.7
2016-Jun-30 00:00N 21°14' W 156°17'1 0.2 25.6
2016-Jun-29 18:00N 21°15' W 156°17'0 0.1 25.4
2016-Jun-29 16:00N 21°15' W 156°17'0 0.5 25.4
2016-Jun-29 15:00N 21°15' W 156°17'0 0.0 25.4
2016-Jun-29 14:00N 21°15' W 156°17'0 0.3 25.4
2016-Jun-29 13:00N 21°15' W 156°18'0 0.0 25.4
2016-Jun-29 12:00N 21°15' W 156°18'1 0.1 25.4
2016-Jun-29 08:00N 21°15' W 156°17'0 0.0 25.4
2016-Jun-29 07:00N 21°15' W 156°17'0 0.0 25.4
2016-Jun-29 06:00N 21°15' W 156°17'1 1.1 25.4
2016-Jun-29 05:00N 21°15' W 156°16'1 0.6 25.4
2016-Jun-29 04:00N 21°16' W 156°16'0 0.2 25.5
2016-Jun-29 03:00N 21°16' W 156°16'1 0.7 25.5
2016-Jun-29 02:00N 21°17' W 156°16'0 0.0 25.5
2016-Jun-29 01:00N 21°17' W 156°16'2 0.5 25.5
2016-Jun-28 20:00N 21°19' W 156°15'0 0.4 25.2
2016-Jun-28 19:00N 21°19' W 156°16'0 0.0 25.2
2016-Jun-28 17:00N 21°19' W 156°16'0 0.3 25.2
2016-Jun-28 16:00N 21°19' W 156°16'0 0.5 25.2
2016-Jun-28 15:00N 21°19' W 156°16'0 0.3 25.2
2016-Jun-28 14:00N 21°19' W 156°16'0 0.0 25.2
2016-Jun-28 07:00N 21°19' W 156°16'1 0.7 25.2
2016-Jun-28 06:00N 21°20' W 156°15'0 0.0 25.2
2016-Jun-28 05:00N 21°20' W 156°15'1 0.6 25.3
2016-Jun-28 04:00N 21°20' W 156°15'0 0.3 25.3
2016-Jun-28 03:00N 21°20' W 156°15'1 0.8 25.3
2016-Jun-28 02:00N 21°21' W 156°14'0 0.0 25.3
2016-Jun-28 01:00N 21°21' W 156°14'1 0.7 25.4
2016-Jun-28 00:00N 21°21' W 156°14'0 0.0 25.4
2016-Jun-27 23:00N 21°21' W 156°14'2 0.5 25.4
2016-Jun-27 20:00N 21°22' W 156°13'0 0.0 25.2
2016-Jun-27 19:00N 21°22' W 156°13'0 0.2 25.1
2016-Jun-27 17:00N 21°23' W 156°13'0 0.4 25.1
2016-Jun-27 16:00N 21°23' W 156°13'1 1.1 25.1
2016-Jun-27 15:00N 21°24' W 156°12'0 0.0 25.1
2016-Jun-27 14:00N 21°24' W 156°12'1 1.1 25.1
2016-Jun-27 13:00N 21°25' W 156°12'0 0.0 25.1
2016-Jun-27 12:00N 21°25' W 156°12'1 0.3 25.2
2016-Jun-27 09:00N 21°26' W 156°12'0 0.1 25.2
2016-Jun-27 07:00N 21°26' W 156°12'0 0.0 25.2
2016-Jun-27 06:00N 21°26' W 156°12'1 1.0 25.3
2016-Jun-27 05:00N 21°26' W 156°11'0 0.2 25.3
2016-Jun-27 04:00N 21°26' W 156°11'1 1.2 25.3
2016-Jun-27 03:00N 21°27' W 156°10'1 1.0 25.3
2016-Jun-27 02:00N 21°28' W 156°09'1 0.6 25.3
2016-Jun-27 01:00N 21°28' W 156°09'0 0.0 25.3
2016-Jun-27 00:00N 21°28' W 156°09'1 1.1 25.3
2016-Jun-26 23:00N 21°29' W 156°09'1 0.2 25.3
2016-Jun-26 17:00N 21°30' W 156°08'1 0.6 25.1
2016-Jun-26 16:00N 21°30' W 156°07'1 0.9 25.1
2016-Jun-26 15:00N 21°31' W 156°07'4 2.1 25.1
2016-Jun-26 13:00N 21°35' W 156°05'5 4.7 25.1
2016-Jun-26 12:00N 21°31' W 156°07'5 1.2 25.1
2016-Jun-26 08:00N 21°35' W 156°05'0 0.4 25.2
2016-Jun-26 07:00N 21°35' W 156°04'1 1.2 25.2
2016-Jun-26 06:00N 21°36' W 156°04'0 0.2 25.2
2016-Jun-26 05:00N 21°36' W 156°04'1 0.6 25.3
2016-Jun-26 04:00N 21°37' W 156°04'0 0.3 25.3
2016-Jun-26 03:00N 21°37' W 156°04'0 0.4 25.3
2016-Jun-26 02:00N 21°37' W 156°04'0 0.3 25.3
2016-Jun-26 01:00N 21°38' W 156°04'0 0.0 25.4
2016-Jun-26 00:00N 21°38' W 156°04'1 0.8 25.3
2016-Jun-25 23:00N 21°38' W 156°04'0 0.1 25.2
2016-Jun-25 20:00N 21°38' W 156°03'1 0.7 25.1
2016-Jun-25 19:00N 21°39' W 156°03'0 0.4 25.1
2016-Jun-25 18:00N 21°39' W 156°02'0 0.0 25.1
2016-Jun-25 17:00N 21°39' W 156°02'1 0.7 25.1
2016-Jun-25 16:00N 21°39' W 156°02'0 0.0 25.1
2016-Jun-25 15:00N 21°39' W 156°02'2 2.0 25.1
2016-Jun-25 14:00N 21°41' W 156°01'0 0.1 25.1
2016-Jun-25 13:00N 21°41' W 156°01'0 0.0 25.1
2016-Jun-25 12:00N 21°41' W 156°01'3 0.6 25.1
2016-Jun-25 08:00N 21°43' W 155°59'1 0.7 25.1
2016-Jun-25 07:00N 21°44' W 155°60'0 0.0 25.1
2016-Jun-25 06:00N 21°44' W 155°60'1 0.9 25.2
2016-Jun-25 05:00N 21°44' W 155°59'0 0.3 25.2
2016-Jun-25 04:00N 21°44' W 155°58'0 0.4 25.2
2016-Jun-25 03:00N 21°44' W 155°58'2 1.6 25.2
2016-Jun-25 02:00N 21°46' W 155°57'0 0.0 25.3
2016-Jun-25 00:00N 21°46' W 155°57'2 0.6 25.2
2016-Jun-24 20:00N 21°48' W 155°57'0 0.2 25.1
2016-Jun-24 19:00N 21°48' W 155°57'1 0.5 25.0
2016-Jun-24 17:00N 21°49' W 155°57'0 0.1 25.0
2016-Jun-24 16:00N 21°49' W 155°57'1 0.5 25.0
2016-Jun-24 15:00N 21°49' W 155°56'1 0.9 25.0
2016-Jun-24 14:00N 21°50' W 155°56'1 0.3 25.0
2016-Jun-24 12:00N 21°50' W 155°56'3 0.7 25.0
2016-Jun-24 08:00N 21°52' W 155°54'2 1.8 25.1
2016-Jun-24 07:00N 21°54' W 155°53'0 0.0 25.1
2016-Jun-24 06:00N 21°54' W 155°53'0 0.0 25.1
2016-Jun-24 05:00N 21°54' W 155°53'1 0.6 25.1
2016-Jun-24 04:00N 21°54' W 155°53'0 0.2 25.2
2016-Jun-24 03:00N 21°55' W 155°53'2 1.8 25.2
2016-Jun-24 02:00N 21°56' W 155°51'0 0.0 25.2
2016-Jun-24 00:00N 21°56' W 155°51'2 0.4 25.2
2016-Jun-23 20:00N 21°58' W 155°51'0 0.0 25.0
2016-Jun-23 18:00N 21°58' W 155°51'0 0.0 25.0
2016-Jun-23 17:00N 21°58' W 155°51'1 0.5 25.0
2016-Jun-23 16:00N 21°58' W 155°50'1 0.9 25.0
2016-Jun-23 15:00N 21°58' W 155°49'0 0.0 25.0
2016-Jun-23 13:00N 21°58' W 155°49'1 0.4 25.0
2016-Jun-23 11:00N 21°58' W 155°49'2 0.5 25.0
2016-Jun-23 08:00N 21°60' W 155°48'0 0.0 25.1
2016-Jun-23 07:00N 21°60' W 155°48'1 0.8 25.1
2016-Jun-23 06:00N 22°01' W 155°48'0 0.0 25.1
2016-Jun-23 04:00N 22°01' W 155°48'1 0.5 25.2
2016-Jun-23 03:00N 22°01' W 155°49'0 0.0 25.2
2016-Jun-23 02:00N 22°01' W 155°49'0 0.0
2016-Jun-23 01:00N 22°01' W 155°49'0 0.0 25.3
2016-Jun-23 00:00N 22°01' W 155°49'0 0.1 25.2
2016-Jun-22 20:00N 22°01' W 155°49'0 0.4 25.1
2016-Jun-22 19:00N 22°01' W 155°49'0 0.0 25.0
2016-Jun-22 18:00N 22°01' W 155°49'1 0.8 25.0
2016-Jun-22 17:00N 22°01' W 155°48'0 0.0 25.0
2016-Jun-22 16:00N 22°01' W 155°48'1 0.8 25.0
2016-Jun-22 15:00N 22°01' W 155°47'0 0.2 25.0
2016-Jun-22 13:00N 22°01' W 155°47'1 0.7 25.1
2016-Jun-22 12:00N 22°01' W 155°46'0 0.0 25.1
2016-Jun-22 11:00N 22°01' W 155°46'3 0.7 25.1
2016-Jun-22 06:00N 22°04' W 155°44'0 0.3 25.3
2016-Jun-22 05:00N 22°04' W 155°44'1 0.7 25.4
2016-Jun-22 04:00N 22°05' W 155°43'1 1.1 25.4
2016-Jun-22 03:00N 22°06' W 155°44'0 0.0 25.5
2016-Jun-22 01:00N 22°06' W 155°44'1 1.4 25.6
2016-Jun-22 00:00N 22°07' W 155°44'0 0.1 25.5
2016-Jun-21 19:00N 22°07' W 155°44'0 0.0 25.1
2016-Jun-21 18:00N 22°07' W 155°44'0 0.2 25.1
2016-Jun-21 16:00N 22°07' W 155°43'1 0.5 25.0
2016-Jun-21 15:00N 22°08' W 155°44'0 0.3 25.1
2016-Jun-21 14:00N 22°08' W 155°44'0 0.3 25.1
2016-Jun-21 13:00N 22°08' W 155°44'1 1.1 25.1
2016-Jun-21 12:00N 22°08' W 155°43'0 0.0 25.1
2016-Jun-21 11:00N 22°08' W 155°43'0 0.0 25.1
2016-Jun-21 08:00N 22°08' W 155°43'1 0.8 25.2
2016-Jun-21 07:00N 22°08' W 155°42'0 0.0 25.2
2016-Jun-21 06:00N 22°08' W 155°42'0 0.1 25.2
2016-Jun-21 05:00N 22°08' W 155°42'2 1.6 25.2
2016-Jun-21 04:00N 22°09' W 155°40'1 0.5 25.2
2016-Jun-21 03:00N 22°09' W 155°40'1 0.5 25.2
2016-Jun-21 02:00N 22°09' W 155°40'0 0.0 25.2
2016-Jun-21 01:00N 22°09' W 155°40'1 0.7 25.2
2016-Jun-21 00:00N 22°10' W 155°40'0 0.0 25.2
2016-Jun-20 23:00N 22°10' W 155°40'1 0.4 25.2
2016-Jun-20 20:00N 22°11' W 155°40'0 0.3 25.1
2016-Jun-20 19:00N 22°11' W 155°40'0 0.2 25.1
2016-Jun-20 17:00N 22°11' W 155°40'0 0.2 25.1
2016-Jun-20 16:00N 22°11' W 155°40'0 0.4 25.1
2016-Jun-20 15:00N 22°12' W 155°40'0 0.5 25.1
2016-Jun-20 14:00N 22°11' W 155°40'   25.1
Track history (hours):
 
Tides and Currents Weather Stations Pressure Air Temp Water Temp Dewpoint Dewpoint Depression Visibility Wind Speed Wind Dir Waves Ship Positions

Drifting buoy 46563

Last reported at 2016-Jun-30 14:00 UTC. Time now 2016-Jun-30 16:01 UTC.
Position N 21°12' W 156°18'.

Water temperature 25.5 ° C

Date/timePositionNaut miles runAvg speedWind from/ knotsBaromVisibWave heightAir tempDewpointWater temp
2016-Jun-30 14:00N 21°12' W 156°18'0 0.2 25.5
2016-Jun-30 12:00N 21°12' W 156°18'0 0.1 25.5
2016-Jun-30 11:00N 21°12' W 156°18'1 0.3 25.6
2016-Jun-30 08:00N 21°12' W 156°18'0 0.5 25.6
2016-Jun-30 07:00N 21°12' W 156°17'1 0.7 25.6
2016-Jun-30 06:00N 21°12' W 156°17'0 0.0 25.6
2016-Jun-30 05:00N 21°12' W 156°17'1 0.6 25.6
2016-Jun-30 04:00N 21°12' W 156°16'0 0.3 25.6
2016-Jun-30 03:00N 21°13' W 156°16'1 0.6 25.7
2016-Jun-30 01:00N 21°14' W 156°17'0 0.0 25.7
2016-Jun-30 00:00N 21°14' W 156°17'1 0.2 25.6
2016-Jun-29 18:00N 21°15' W 156°17'0 0.1 25.4
2016-Jun-29 16:00N 21°15' W 156°17'0 0.5 25.4
2016-Jun-29 15:00N 21°15' W 156°17'0 0.0 25.4
2016-Jun-29 14:00N 21°15' W 156°17'0 0.3 25.4
2016-Jun-29 13:00N 21°15' W 156°18'0 0.0 25.4
2016-Jun-29 12:00N 21°15' W 156°18'1 0.1 25.4
2016-Jun-29 08:00N 21°15' W 156°17'0 0.0 25.4
2016-Jun-29 07:00N 21°15' W 156°17'0 0.0 25.4
2016-Jun-29 06:00N 21°15' W 156°17'1 1.1 25.4
2016-Jun-29 05:00N 21°15' W 156°16'1 0.6 25.4
2016-Jun-29 04:00N 21°16' W 156°16'0 0.2 25.5
2016-Jun-29 03:00N 21°16' W 156°16'1 0.7 25.5
2016-Jun-29 02:00N 21°17' W 156°16'0 0.0 25.5
2016-Jun-29 01:00N 21°17' W 156°16'2 0.5 25.5
2016-Jun-28 20:00N 21°19' W 156°15'0 0.4 25.2
2016-Jun-28 19:00N 21°19' W 156°16'0 0.0 25.2
2016-Jun-28 17:00N 21°19' W 156°16'0 0.3 25.2
2016-Jun-28 16:00N 21°19' W 156°16'0 0.5 25.2
2016-Jun-28 15:00N 21°19' W 156°16'0 0.3 25.2
2016-Jun-28 14:00N 21°19' W 156°16'0 0.0 25.2
2016-Jun-28 07:00N 21°19' W 156°16'1 0.7 25.2
2016-Jun-28 06:00N 21°20' W 156°15'0 0.0 25.2
2016-Jun-28 05:00N 21°20' W 156°15'1 0.6 25.3
2016-Jun-28 04:00N 21°20' W 156°15'0 0.3 25.3
2016-Jun-28 03:00N 21°20' W 156°15'1 0.8 25.3
2016-Jun-28 02:00N 21°21' W 156°14'0 0.0 25.3
2016-Jun-28 01:00N 21°21' W 156°14'1 0.7 25.4
2016-Jun-28 00:00N 21°21' W 156°14'0 0.0 25.4
2016-Jun-27 23:00N 21°21' W 156°14'2 0.5 25.4
2016-Jun-27 20:00N 21°22' W 156°13'0 0.0 25.2
2016-Jun-27 19:00N 21°22' W 156°13'0 0.2 25.1
2016-Jun-27 17:00N 21°23' W 156°13'0 0.4 25.1
2016-Jun-27 16:00N 21°23' W 156°13'1 1.1 25.1
2016-Jun-27 15:00N 21°24' W 156°12'0 0.0 25.1
2016-Jun-27 14:00N 21°24' W 156°12'1 1.1 25.1
2016-Jun-27 13:00N 21°25' W 156°12'0 0.0 25.1
2016-Jun-27 12:00N 21°25' W 156°12'1 0.3 25.2
2016-Jun-27 09:00N 21°26' W 156°12'0 0.1 25.2
2016-Jun-27 07:00N 21°26' W 156°12'0 0.0 25.2
2016-Jun-27 06:00N 21°26' W 156°12'1 1.0 25.3
2016-Jun-27 05:00N 21°26' W 156°11'0 0.2 25.3
2016-Jun-27 04:00N 21°26' W 156°11'1 1.2 25.3
2016-Jun-27 03:00N 21°27' W 156°10'1 1.0 25.3
2016-Jun-27 02:00N 21°28' W 156°09'1 0.6 25.3
2016-Jun-27 01:00N 21°28' W 156°09'0 0.0 25.3
2016-Jun-27 00:00N 21°28' W 156°09'1 1.1 25.3
2016-Jun-26 23:00N 21°29' W 156°09'1 0.2 25.3
2016-Jun-26 17:00N 21°30' W 156°08'1 0.6 25.1
2016-Jun-26 16:00N 21°30' W 156°07'1 0.9 25.1
2016-Jun-26 15:00N 21°31' W 156°07'4 2.1 25.1
2016-Jun-26 13:00N 21°35' W 156°05'5 4.7 25.1
2016-Jun-26 12:00N 21°31' W 156°07'5 1.2 25.1
2016-Jun-26 08:00N 21°35' W 156°05'0 0.4 25.2
2016-Jun-26 07:00N 21°35' W 156°04'1 1.2 25.2
2016-Jun-26 06:00N 21°36' W 156°04'0 0.2 25.2
2016-Jun-26 05:00N 21°36' W 156°04'1 0.6 25.3
2016-Jun-26 04:00N 21°37' W 156°04'0 0.3 25.3
2016-Jun-26 03:00N 21°37' W 156°04'0 0.4 25.3
2016-Jun-26 02:00N 21°37' W 156°04'0 0.3 25.3
2016-Jun-26 01:00N 21°38' W 156°04'0 0.0 25.4
2016-Jun-26 00:00N 21°38' W 156°04'1 0.8 25.3
2016-Jun-25 23:00N 21°38' W 156°04'0 0.1 25.2
2016-Jun-25 20:00N 21°38' W 156°03'1 0.7 25.1
2016-Jun-25 19:00N 21°39' W 156°03'0 0.4 25.1
2016-Jun-25 18:00N 21°39' W 156°02'0 0.0 25.1
2016-Jun-25 17:00N 21°39' W 156°02'1 0.7 25.1
2016-Jun-25 16:00N 21°39' W 156°02'0 0.0 25.1
2016-Jun-25 15:00N 21°39' W 156°02'2 2.0 25.1
2016-Jun-25 14:00N 21°41' W 156°01'0 0.1 25.1
2016-Jun-25 13:00N 21°41' W 156°01'0 0.0 25.1
2016-Jun-25 12:00N 21°41' W 156°01'3 0.6 25.1
2016-Jun-25 08:00N 21°43' W 155°59'1 0.7 25.1
2016-Jun-25 07:00N 21°44' W 155°60'0 0.0 25.1
2016-Jun-25 06:00N 21°44' W 155°60'1 0.9 25.2
2016-Jun-25 05:00N 21°44' W 155°59'0 0.3 25.2
2016-Jun-25 04:00N 21°44' W 155°58'0 0.4 25.2
2016-Jun-25 03:00N 21°44' W 155°58'2 1.6 25.2
2016-Jun-25 02:00N 21°46' W 155°57'0 0.0 25.3
2016-Jun-25 00:00N 21°46' W 155°57'2 0.6 25.2
2016-Jun-24 20:00N 21°48' W 155°57'0 0.2 25.1
2016-Jun-24 19:00N 21°48' W 155°57'1 0.5 25.0
2016-Jun-24 17:00N 21°49' W 155°57'0 0.1 25.0
2016-Jun-24 16:00N 21°49' W 155°57'1 0.5 25.0
2016-Jun-24 15:00N 21°49' W 155°56'1 0.9 25.0
2016-Jun-24 14:00N 21°50' W 155°56'1 0.3 25.0
2016-Jun-24 12:00N 21°50' W 155°56'3 0.7 25.0
2016-Jun-24 08:00N 21°52' W 155°54'2 1.8 25.1
2016-Jun-24 07:00N 21°54' W 155°53'0 0.0 25.1
2016-Jun-24 06:00N 21°54' W 155°53'0 0.0 25.1
2016-Jun-24 05:00N 21°54' W 155°53'1 0.6 25.1
2016-Jun-24 04:00N 21°54' W 155°53'0 0.2 25.2
2016-Jun-24 03:00N 21°55' W 155°53'2 1.8 25.2
2016-Jun-24 02:00N 21°56' W 155°51'0 0.0 25.2
2016-Jun-24 00:00N 21°56' W 155°51'2 0.4 25.2
2016-Jun-23 20:00N 21°58' W 155°51'0 0.0 25.0
2016-Jun-23 18:00N 21°58' W 155°51'0 0.0 25.0
2016-Jun-23 17:00N 21°58' W 155°51'1 0.5 25.0
2016-Jun-23 16:00N 21°58' W 155°50'1 0.9 25.0
2016-Jun-23 15:00N 21°58' W 155°49'0 0.0 25.0
2016-Jun-23 13:00N 21°58' W 155°49'1 0.4 25.0
2016-Jun-23 11:00N 21°58' W 155°49'2 0.5 25.0
2016-Jun-23 08:00N 21°60' W 155°48'0 0.0 25.1
2016-Jun-23 07:00N 21°60' W 155°48'1 0.8 25.1
2016-Jun-23 06:00N 22°01' W 155°48'0 0.0 25.1
2016-Jun-23 04:00N 22°01' W 155°48'1 0.5 25.2
2016-Jun-23 03:00N 22°01' W 155°49'0 0.0 25.2
2016-Jun-23 02:00N 22°01' W 155°49'0 0.0
2016-Jun-23 01:00N 22°01' W 155°49'0 0.0 25.3
2016-Jun-23 00:00N 22°01' W 155°49'0 0.1 25.2
2016-Jun-22 20:00N 22°01' W 155°49'0 0.4 25.1
2016-Jun-22 19:00N 22°01' W 155°49'0 0.0 25.0
2016-Jun-22 18:00N 22°01' W 155°49'1 0.8 25.0
2016-Jun-22 17:00N 22°01' W 155°48'0 0.0 25.0
2016-Jun-22 16:00N 22°01' W 155°48'1 0.8 25.0
2016-Jun-22 15:00N 22°01' W 155°47'0 0.2 25.0
2016-Jun-22 13:00N 22°01' W 155°47'1 0.7 25.1
2016-Jun-22 12:00N 22°01' W 155°46'0 0.0 25.1
2016-Jun-22 11:00N 22°01' W 155°46'3 0.7 25.1
2016-Jun-22 06:00N 22°04' W 155°44'0 0.3 25.3
2016-Jun-22 05:00N 22°04' W 155°44'1 0.7 25.4
2016-Jun-22 04:00N 22°05' W 155°43'1 1.1 25.4
2016-Jun-22 03:00N 22°06' W 155°44'0 0.0 25.5
2016-Jun-22 01:00N 22°06' W 155°44'1 1.4 25.6
2016-Jun-22 00:00N 22°07' W 155°44'0 0.1 25.5
2016-Jun-21 19:00N 22°07' W 155°44'0 0.0 25.1
2016-Jun-21 18:00N 22°07' W 155°44'0 0.2 25.1
2016-Jun-21 16:00N 22°07' W 155°43'1 0.5 25.0
2016-Jun-21 15:00N 22°08' W 155°44'0 0.3 25.1
2016-Jun-21 14:00N 22°08' W 155°44'0 0.3 25.1
2016-Jun-21 13:00N 22°08' W 155°44'1 1.1 25.1
2016-Jun-21 12:00N 22°08' W 155°43'0 0.0 25.1
2016-Jun-21 11:00N 22°08' W 155°43'0 0.0 25.1
2016-Jun-21 08:00N 22°08' W 155°43'1 0.8 25.2
2016-Jun-21 07:00N 22°08' W 155°42'0 0.0 25.2
2016-Jun-21 06:00N 22°08' W 155°42'0 0.1 25.2
2016-Jun-21 05:00N 22°08' W 155°42'2 1.6 25.2
2016-Jun-21 04:00N 22°09' W 155°40'1 0.5 25.2
2016-Jun-21 03:00N 22°09' W 155°40'1 0.5 25.2
2016-Jun-21 02:00N 22°09' W 155°40'0 0.0 25.2
2016-Jun-21 01:00N 22°09' W 155°40'1 0.7 25.2
2016-Jun-21 00:00N 22°10' W 155°40'0 0.0 25.2
2016-Jun-20 23:00N 22°10' W 155°40'1 0.4 25.2
2016-Jun-20 20:00N 22°11' W 155°40'0 0.3 25.1
2016-Jun-20 19:00N 22°11' W 155°40'0 0.2 25.1
2016-Jun-20 17:00N 22°11' W 155°40'0 0.2 25.1
2016-Jun-20 16:00N 22°11' W 155°40'0 0.4 25.1
2016-Jun-20 15:00N 22°12' W 155°40'0 0.5 25.1
2016-Jun-20 14:00N 22°11' W 155°40'   25.1

Dump ship's entire track history